createdAt,value
2022-09-02T00:00:25.439Z,80.00
2022-09-02T00:02:54.382Z,79.80
2022-09-02T00:05:22.553Z,82.00
2022-09-02T00:07:50.491Z,80.50
2022-09-02T00:10:18.661Z,78.40
2022-09-02T00:12:46.552Z,79.20
2022-09-02T00:15:14.590Z,79.30
2022-09-02T00:17:43.925Z,81.20
2022-09-02T00:20:12.576Z,81.20
2022-09-02T00:22:40.627Z,82.80
2022-09-02T00:25:09.742Z,80.40
2022-09-02T00:27:37.675Z,81.20
2022-09-02T00:30:07.338Z,82.50
2022-09-02T00:32:35.278Z,81.20
2022-09-02T00:35:05.859Z,81.50
2022-09-02T00:37:33.815Z,80.30
2022-09-02T00:40:03.277Z,81.30
2022-09-02T00:42:31.275Z,80.80
2022-09-02T00:44:59.424Z,81.80
2022-09-02T00:47:27.363Z,82.10
2022-09-02T00:49:55.639Z,80.80
2022-09-02T00:52:30.001Z,82.00
2022-09-02T00:55:00.551Z,83.00
2022-09-02T00:57:33.015Z,83.40
2022-09-02T01:00:10.069Z,83.00
2022-09-02T01:02:40.636Z,85.40
2022-09-02T01:05:11.931Z,85.30
2022-09-02T01:07:43.206Z,83.10
2022-09-02T01:10:14.424Z,84.10
2022-09-02T01:12:42.723Z,85.30
2022-09-02T01:15:13.275Z,86.40
2022-09-02T01:17:43.960Z,88.20
2022-09-02T01:20:15.134Z,85.00
2022-09-02T01:22:45.733Z,86.90
2022-09-02T01:25:16.881Z,86.00
2022-09-02T01:27:45.205Z,88.80
2022-09-02T01:30:15.988Z,88.90
2022-09-02T01:32:43.955Z,87.30
2022-09-02T01:39:01.658Z,88.30
2022-09-02T01:41:29.762Z,88.50
2022-09-02T01:43:57.785Z,87.30
2022-09-02T01:46:26.275Z,88.10
2022-09-02T01:48:54.297Z,87.20
2022-09-02T01:51:22.666Z,88.30
2022-09-02T01:53:50.648Z,89.70
2022-09-02T01:56:19.916Z,90.00
2022-09-02T01:58:47.894Z,90.80
2022-09-02T02:01:16.309Z,90.40
2022-09-02T02:03:44.398Z,89.40
2022-09-02T02:06:14.975Z,89.60
2022-09-02T02:08:43.574Z,90.40
2022-09-02T02:11:11.792Z,88.40
2022-09-02T02:13:41.118Z,89.00
2022-09-02T02:16:09.164Z,89.70
2022-09-02T02:18:37.649Z,90.90
2022-09-02T02:21:05.787Z,91.10
2022-09-02T02:23:34.599Z,88.90
2022-09-02T02:26:02.515Z,89.70
2022-09-02T02:28:31.012Z,90.80
2022-09-02T02:31:00.879Z,91.30
2022-09-02T02:33:30.485Z,91.10
2022-09-02T02:36:05.552Z,91.30
2022-09-02T02:38:33.559Z,91.40
2022-09-02T02:41:02.001Z,91.70
2022-09-02T02:43:29.975Z,93.60
2022-09-02T02:45:57.891Z,91.60
2022-09-02T02:48:27.331Z,92.20
2022-09-02T02:50:55.428Z,92.30
2022-09-02T02:53:23.607Z,91.40
2022-09-02T02:55:51.929Z,91.20
2022-09-02T02:58:19.873Z,92.70
2022-09-02T03:00:47.904Z,91.10
2022-09-02T03:03:19.696Z,91.90
2022-09-02T03:05:50.830Z,91.80
2022-09-02T03:08:20.988Z,91.90
2022-09-02T03:10:54.362Z,91.30
2022-09-02T03:13:23.183Z,91.20
2022-09-02T03:15:51.557Z,92.30
2022-09-02T03:18:20.062Z,91.20
2022-09-02T03:20:49.532Z,91.80
2022-09-02T03:23:18.748Z,92.00
2022-09-02T03:25:47.890Z,92.10
2022-09-02T03:28:15.905Z,92.60
2022-09-02T03:30:47.608Z,91.60
2022-09-02T03:33:16.000Z,92.10
2022-09-02T03:35:46.194Z,93.40
2022-09-02T03:38:15.550Z,93.00
2022-09-02T03:40:43.601Z,92.30
2022-09-02T03:43:11.994Z,92.60
2022-09-02T03:45:41.706Z,92.00
2022-09-02T03:48:12.412Z,91.90
2022-09-02T03:50:42.656Z,91.40
2022-09-02T03:53:23.258Z,91.30
2022-09-02T03:55:53.050Z,92.20
2022-09-02T03:58:22.886Z,92.20
2022-09-02T04:00:52.759Z,91.30
2022-09-02T04:03:21.703Z,91.80
2022-09-02T04:05:50.721Z,91.50
2022-09-02T04:08:18.948Z,91.70
2022-09-02T04:10:47.207Z,91.70
2022-09-02T04:13:16.544Z,92.60
2022-09-02T04:15:47.799Z,91.30
2022-09-02T04:19:11.388Z,91.50
2022-09-02T04:21:41.756Z,91.70
2022-09-02T04:24:11.662Z,92.10
2022-09-02T04:26:45.159Z,91.80
2022-09-02T04:29:15.058Z,91.30
2022-09-02T04:31:44.757Z,91.10
2022-09-02T04:34:12.899Z,90.80
2022-09-02T04:36:40.929Z,91.10
2022-09-02T04:39:09.719Z,92.10
2022-09-02T04:41:38.716Z,91.00
2022-09-02T04:44:07.299Z,92.60
2022-09-02T04:46:37.162Z,92.00
2022-09-02T04:49:06.204Z,91.50
2022-09-02T04:51:34.637Z,91.60
2022-09-02T04:54:02.743Z,91.60
2022-09-02T04:56:32.536Z,91.60
2022-09-02T04:59:01.175Z,91.70
2022-09-02T05:01:32.502Z,92.10
2022-09-02T05:04:02.952Z,91.80
2022-09-02T05:06:31.259Z,91.30
2022-09-02T05:09:00.695Z,91.70
2022-09-02T05:11:31.073Z,91.70
2022-09-02T05:14:01.163Z,91.50
2022-09-02T05:16:32.675Z,91.40
2022-09-02T05:19:03.344Z,92.50
2022-09-02T05:21:32.158Z,91.50
2022-09-02T05:24:02.223Z,91.70
2022-09-02T05:26:30.203Z,91.80
2022-09-02T05:28:58.111Z,91.40
2022-09-02T05:31:27.536Z,91.80
2022-09-02T05:33:55.671Z,91.40
2022-09-02T05:36:25.746Z,91.60
2022-09-02T05:38:53.683Z,91.10
2022-09-02T05:41:24.644Z,91.00
2022-09-02T05:43:53.607Z,90.60
2022-09-02T05:46:24.327Z,90.40
2022-09-02T05:49:09.574Z,90.50
2022-09-02T05:51:44.079Z,90.90
2022-09-02T05:54:13.870Z,90.20
2022-09-02T05:56:45.099Z,90.80
2022-09-02T05:59:13.773Z,90.30
2022-09-02T06:01:41.986Z,91.60
2022-09-02T06:04:10.157Z,91.00
2022-09-02T06:06:39.529Z,91.10
2022-09-02T06:09:11.583Z,90.40
2022-09-02T06:11:44.604Z,90.20
2022-09-02T06:14:13.918Z,90.60
2022-09-02T06:16:42.734Z,90.20
2022-09-02T06:19:11.899Z,90.60
2022-09-02T06:21:42.207Z,90.40
2022-09-02T06:24:13.154Z,88.50
2022-09-02T06:26:42.232Z,90.20
2022-09-02T06:29:11.396Z,91.10
2022-09-02T06:31:42.523Z,90.10
2022-09-02T06:34:13.668Z,89.70
2022-09-02T06:36:43.200Z,87.30
2022-09-02T06:39:14.533Z,85.00
2022-09-02T06:41:43.987Z,87.50
2022-09-02T06:44:15.242Z,88.10
2022-09-02T06:46:45.361Z,86.50
2022-09-02T06:49:16.202Z,87.10
2022-09-02T06:51:46.832Z,85.40
2022-09-02T06:54:17.919Z,84.30
2022-09-02T06:56:49.801Z,86.30
2022-09-02T06:59:18.471Z,85.10
2022-09-02T07:01:46.942Z,83.90
2022-09-02T07:04:33.375Z,83.50
2022-09-02T07:07:01.298Z,84.10
2022-09-02T07:09:31.245Z,81.80
2022-09-02T07:12:04.179Z,87.20
2022-09-02T07:14:33.774Z,83.30
2022-09-02T07:17:01.847Z,82.70
2022-09-02T07:19:29.864Z,83.80
2022-09-02T07:21:58.037Z,83.10
2022-09-02T07:24:26.101Z,84.30
2022-09-02T07:26:55.887Z,82.80
2022-09-02T07:29:24.129Z,81.00
2022-09-02T07:31:52.197Z,81.40
2022-09-02T07:34:20.755Z,82.30
2022-09-02T07:36:49.121Z,80.80
2022-09-02T07:39:18.422Z,80.90
2022-09-02T07:41:50.265Z,81.00
2022-09-02T07:44:21.196Z,80.00
2022-09-02T07:46:49.324Z,80.90
2022-09-02T07:49:22.034Z,79.90
2022-09-02T07:51:52.493Z,81.70
2022-09-02T07:54:23.501Z,81.30
2022-09-02T07:56:51.690Z,81.30
2022-09-02T07:59:22.382Z,82.00
2022-09-02T08:01:51.674Z,80.40
2022-09-02T08:04:22.183Z,80.30
2022-09-02T08:06:50.694Z,81.10
2022-09-02T08:09:18.738Z,81.40
2022-09-02T08:11:49.815Z,81.70
2022-09-02T08:14:22.988Z,80.30
2022-09-02T08:16:53.393Z,81.70
2022-09-02T08:19:22.473Z,81.30
2022-09-02T08:21:50.933Z,79.50
2022-09-02T08:24:18.932Z,79.90
2022-09-02T08:26:47.039Z,82.30
2022-09-02T08:29:15.524Z,80.10
2022-09-02T08:31:44.907Z,79.00
2022-09-02T08:34:12.959Z,80.40
2022-09-02T08:36:45.351Z,79.80
2022-09-02T08:42:06.287Z,78.20
2022-09-02T08:44:38.074Z,76.70
2022-09-02T08:47:14.413Z,78.00
2022-09-02T08:49:45.503Z,77.60
2022-09-02T08:52:21.680Z,76.20
2022-09-02T08:54:55.682Z,76.00
2022-09-02T08:57:27.793Z,76.40
2022-09-02T08:59:59.110Z,75.30
2022-09-02T09:02:37.369Z,74.50
2022-09-02T09:05:17.852Z,74.80
2022-09-02T09:07:59.574Z,73.40
2022-09-02T09:10:38.361Z,70.30
2022-09-02T09:13:30.575Z,73.20
2022-09-02T09:16:09.517Z,71.60
2022-09-02T09:18:41.991Z,71.20
2022-09-02T09:21:11.159Z,69.00
2022-09-02T09:23:40.777Z,68.60
2022-09-02T09:26:11.123Z,69.80
2022-09-02T09:28:44.934Z,68.00
2022-09-02T09:31:15.742Z,67.60
2022-09-02T09:33:58.681Z,65.00
2022-09-02T09:36:49.245Z,61.90
2022-09-02T09:39:23.375Z,61.80
2022-09-02T09:41:52.938Z,62.00
2022-09-02T09:44:37.428Z,61.30
2022-09-02T09:47:16.026Z,62.50
2022-09-02T09:49:48.521Z,61.50
2022-09-02T09:52:34.456Z,59.60
2022-09-02T09:55:15.534Z,57.50
2022-09-02T09:57:53.259Z,55.20
2022-09-02T10:00:26.836Z,53.40
2022-09-02T10:02:59.663Z,54.00
2022-09-02T10:05:35.515Z,54.80
2022-09-02T10:08:10.125Z,55.20
2022-09-02T10:10:57.473Z,51.70
2022-09-02T10:13:28.245Z,48.30
2022-09-02T10:16:29.408Z,45.00
2022-09-02T10:19:03.748Z,46.00
2022-09-02T10:21:51.380Z,46.70
2022-09-02T10:24:35.783Z,42.70
2022-09-02T10:27:09.053Z,42.10
2022-09-02T10:29:55.484Z,42.70
2022-09-02T10:32:43.968Z,42.20
2022-09-02T10:35:20.205Z,42.30
2022-09-02T10:38:05.588Z,42.30
2022-09-02T10:40:41.721Z,40.30
2022-09-02T10:43:19.842Z,40.00
2022-09-02T10:45:50.841Z,41.00
2022-09-02T10:48:36.108Z,40.20
2022-09-02T10:51:10.624Z,41.80
2022-09-02T10:53:49.821Z,39.50
2022-09-02T10:56:21.478Z,39.60
2022-09-02T10:58:55.539Z,39.80
2022-09-02T11:01:26.923Z,40.50
2022-09-02T11:04:09.545Z,41.10
2022-09-02T11:07:01.264Z,40.10
2022-09-02T11:09:36.943Z,41.00
2022-09-02T11:12:12.034Z,41.00
2022-09-02T11:14:51.526Z,39.70
2022-09-02T11:17:24.968Z,38.30
2022-09-02T11:20:00.813Z,39.40
2022-09-02T11:22:39.017Z,40.00
2022-09-02T11:25:14.321Z,40.20
2022-09-02T11:27:47.483Z,39.70
2022-09-02T11:30:18.434Z,38.70
2022-09-02T11:32:53.275Z,38.60
2022-09-02T11:35:26.639Z,40.50
2022-09-02T11:38:00.691Z,38.60
2022-09-02T11:40:36.291Z,37.90
2022-09-02T11:43:26.574Z,37.50
2022-09-02T11:46:08.245Z,38.70
2022-09-02T11:48:58.083Z,37.70
2022-09-02T11:51:54.616Z,38.20
2022-09-02T11:54:25.063Z,36.30
2022-09-02T11:57:00.206Z,36.50
2022-09-02T12:00:02.282Z,37.30
2022-09-02T12:02:38.479Z,35.80
2022-09-02T12:05:43.759Z,36.00
2022-09-02T12:08:15.300Z,37.10
2022-09-02T12:11:01.175Z,35.70
2022-09-02T12:13:40.972Z,35.30
2022-09-02T12:16:41.132Z,36.00
2022-09-02T12:19:27.968Z,37.20
2022-09-02T12:22:28.535Z,37.00
2022-09-02T12:24:57.622Z,36.30
2022-09-02T12:27:36.634Z,35.30
2022-09-02T12:30:09.236Z,36.00
2022-09-02T12:33:05.456Z,35.50
2022-09-02T12:35:50.085Z,36.40
2022-09-02T12:41:13.479Z,36.20
2022-09-02T12:43:54.083Z,35.80
2022-09-02T12:46:32.241Z,35.00
2022-09-02T12:49:06.727Z,33.90
2022-09-02T12:51:54.858Z,34.80
2022-09-02T12:54:28.880Z,34.40
2022-09-02T12:56:57.263Z,35.50
2022-09-02T12:59:30.859Z,35.90
2022-09-02T13:02:30.467Z,34.40
2022-09-02T13:05:16.073Z,36.40
2022-09-02T13:08:13.000Z,35.80
2022-09-02T13:10:58.221Z,36.00
2022-09-02T13:13:49.122Z,35.00
2022-09-02T13:16:22.551Z,35.60
2022-09-02T13:19:24.099Z,34.50
2022-09-02T13:22:19.965Z,34.90
2022-09-02T13:25:06.569Z,34.40
2022-09-02T13:28:17.288Z,33.90
2022-09-02T13:31:08.350Z,34.10
2022-09-02T13:33:40.592Z,33.60
2022-09-02T13:36:10.845Z,33.20
2022-09-02T13:38:40.220Z,34.70
2022-09-02T13:41:09.416Z,34.20
2022-09-02T13:43:37.682Z,34.40
2022-09-02T13:46:06.202Z,34.60
2022-09-02T13:48:35.154Z,34.80
2022-09-02T13:51:13.024Z,34.00
2022-09-02T13:53:45.637Z,33.30
2022-09-02T13:56:31.651Z,32.40
2022-09-02T13:58:59.670Z,33.90
2022-09-02T14:01:31.608Z,31.70
2022-09-02T14:06:36.209Z,32.90
2022-09-02T14:09:09.466Z,32.50
2022-09-02T14:11:42.583Z,33.50
2022-09-02T14:14:14.998Z,33.80
2022-09-02T14:16:43.006Z,33.40
2022-09-02T14:19:14.681Z,32.50
2022-09-02T14:21:47.952Z,33.70
2022-09-02T14:24:22.579Z,32.90
2022-09-02T14:26:53.987Z,32.10
2022-09-02T14:29:24.224Z,31.60
2022-09-02T14:32:13.174Z,31.90
2022-09-02T14:34:43.861Z,32.90
2022-09-02T14:37:25.910Z,33.40
2022-09-02T14:40:09.713Z,33.70
2022-09-02T14:42:48.584Z,32.80
2022-09-02T14:45:27.362Z,33.70
2022-09-02T14:47:56.118Z,34.10
2022-09-02T14:50:29.651Z,33.00
2022-09-02T14:53:04.719Z,34.10
2022-09-02T14:55:47.968Z,32.50
2022-09-02T14:58:17.148Z,32.70
2022-09-02T15:00:47.460Z,33.20
2022-09-02T15:03:17.168Z,32.80
2022-09-02T15:05:45.570Z,34.60
2022-09-02T15:08:13.949Z,34.10
2022-09-02T15:10:47.092Z,32.90
2022-09-02T15:13:22.019Z,33.10
2022-09-02T15:15:52.178Z,33.20
2022-09-02T15:18:20.316Z,32.60
2022-09-02T15:20:48.328Z,32.40
2022-09-02T15:23:16.662Z,32.90
2022-09-02T15:25:46.125Z,33.00
2022-09-02T15:28:14.546Z,31.90
2022-09-02T15:30:42.710Z,31.70
2022-09-02T15:33:16.631Z,32.20
2022-09-02T15:35:52.411Z,31.90
2022-09-02T15:38:20.599Z,32.40
2022-09-02T15:40:50.881Z,32.50
2022-09-02T15:43:21.329Z,32.30
2022-09-02T15:45:49.511Z,32.90
2022-09-02T15:48:17.588Z,32.20
2022-09-02T15:50:46.665Z,33.20
2022-09-02T15:53:15.860Z,32.50
2022-09-02T15:55:44.333Z,32.40
2022-09-02T15:58:13.736Z,31.90
2022-09-02T16:00:43.926Z,32.30
2022-09-02T16:03:13.468Z,32.40
2022-09-02T16:05:43.162Z,33.00
2022-09-02T16:08:11.691Z,32.90
2022-09-02T16:10:40.318Z,31.80
2022-09-02T16:13:08.344Z,32.20
2022-09-02T16:15:37.905Z,32.30
2022-09-02T16:18:06.143Z,32.90
2022-09-02T16:20:34.171Z,32.90
2022-09-02T16:23:03.823Z,32.20
2022-09-02T16:25:34.546Z,32.20
2022-09-02T16:28:02.836Z,32.90
2022-09-02T16:30:30.966Z,32.40
2022-09-02T16:33:01.016Z,32.90
2022-09-02T16:35:29.220Z,32.00
2022-09-02T16:37:58.118Z,31.60
2022-09-02T16:40:26.011Z,31.40
2022-09-02T16:42:53.947Z,31.90
2022-09-02T16:45:21.933Z,32.00
2022-09-02T16:47:49.950Z,31.60
2022-09-02T16:50:19.267Z,31.40
2022-09-02T16:52:47.281Z,31.70
2022-09-02T16:55:18.703Z,31.30
2022-09-02T16:57:46.667Z,32.00
2022-09-02T17:00:27.884Z,31.00
2022-09-02T17:03:03.188Z,31.40
2022-09-02T17:05:37.439Z,31.70
2022-09-02T17:08:05.843Z,31.90
2022-09-02T17:10:35.062Z,31.30
2022-09-02T17:13:03.255Z,31.20
2022-09-02T17:15:32.595Z,32.60
2022-09-02T17:18:00.790Z,33.40
2022-09-02T17:20:28.801Z,33.60
2022-09-02T17:22:58.559Z,32.50
2022-09-02T17:25:26.499Z,32.90
2022-09-02T17:28:00.376Z,33.30
2022-09-02T17:30:28.401Z,33.80
2022-09-02T17:32:58.362Z,33.80
2022-09-02T17:35:26.613Z,35.00
2022-09-02T17:37:54.470Z,34.60
2022-09-02T17:40:56.011Z,35.70
2022-09-02T17:43:24.349Z,35.30
2022-09-02T17:45:54.767Z,35.20
2022-09-02T17:48:39.038Z,36.00
2022-09-02T17:51:10.960Z,36.40
2022-09-02T17:53:39.990Z,36.50
2022-09-02T17:56:36.095Z,36.40
2022-09-02T17:59:17.755Z,37.10
2022-09-02T18:01:58.046Z,37.30
2022-09-02T18:04:36.583Z,37.20
2022-09-02T18:07:12.640Z,38.00
2022-09-02T18:09:40.644Z,38.50
2022-09-02T18:12:10.030Z,38.80
2022-09-02T18:14:43.233Z,38.80
2022-09-02T18:17:24.072Z,38.30
2022-09-02T18:19:59.362Z,39.80
2022-09-02T18:22:47.489Z,39.50
2022-09-02T18:25:29.564Z,39.60
2022-09-02T18:28:13.555Z,40.30
2022-09-02T18:30:48.970Z,41.00
2022-09-02T18:33:29.598Z,41.20
2022-09-02T18:36:05.361Z,40.80
2022-09-02T18:38:40.885Z,41.80
2022-09-02T18:41:25.533Z,42.00
2022-09-02T18:44:09.278Z,43.00
2022-09-02T18:46:47.108Z,42.30
2022-09-02T18:49:16.302Z,42.10
2022-09-02T18:51:45.691Z,42.70
2022-09-02T18:54:18.958Z,43.20
2022-09-02T18:56:53.956Z,42.90
2022-09-02T18:59:28.666Z,42.90
2022-09-02T19:02:02.226Z,42.50
2022-09-02T19:04:32.612Z,43.40
2022-09-02T19:07:14.896Z,42.90
2022-09-02T19:09:43.214Z,43.70
2022-09-02T19:12:13.081Z,43.60
2022-09-02T19:14:41.623Z,44.40
2022-09-02T19:17:12.578Z,43.70
2022-09-02T19:19:40.570Z,43.40
2022-09-02T19:22:12.486Z,44.60
2022-09-02T19:24:46.158Z,43.40
2022-09-02T19:27:18.408Z,43.30
2022-09-02T19:29:51.588Z,44.80
2022-09-02T19:32:24.735Z,45.20
2022-09-02T19:34:53.194Z,44.20
2022-09-02T19:37:23.591Z,44.10
2022-09-02T19:39:54.123Z,45.10
2022-09-02T19:42:24.830Z,45.20
2022-09-02T19:44:53.439Z,44.80
2022-09-02T19:48:05.558Z,44.70
2022-09-02T19:50:13.541Z,46.20
2022-09-02T19:52:44.278Z,44.80
2022-09-02T19:55:15.204Z,46.20
2022-09-02T19:57:45.087Z,46.40
2022-09-02T20:00:15.201Z,46.60
2022-09-02T20:02:43.324Z,46.90
2022-09-02T20:05:12.795Z,46.80
2022-09-02T20:07:41.282Z,46.80
2022-09-02T20:10:10.682Z,47.30
2022-09-02T20:12:39.320Z,47.50
2022-09-02T20:15:09.859Z,47.70
2022-09-02T20:17:37.935Z,48.70
2022-09-02T20:20:13.009Z,48.50
2022-09-02T20:22:41.141Z,48.40
2022-09-02T20:25:09.548Z,49.00
2022-09-02T20:27:55.302Z,48.60
2022-09-02T20:30:33.671Z,49.30
2022-09-02T20:33:10.847Z,49.80
2022-09-02T20:35:49.231Z,49.80
2022-09-02T20:38:37.566Z,50.10
2022-09-02T20:41:12.686Z,50.30
2022-09-02T20:44:06.649Z,52.70
2022-09-02T20:46:55.657Z,50.70
2022-09-02T20:50:09.751Z,52.00
2022-09-02T20:53:00.569Z,51.60
2022-09-02T20:55:39.805Z,51.40
2022-09-02T20:58:26.973Z,50.30
2022-09-02T21:01:11.021Z,51.30
2022-09-02T21:03:51.079Z,50.80
2022-09-02T21:06:25.095Z,50.40
2022-09-02T21:09:02.224Z,51.30
2022-09-02T21:11:38.865Z,51.10
2022-09-02T21:14:12.624Z,50.10
2022-09-02T21:16:45.606Z,50.10
2022-09-02T21:19:23.072Z,51.10
2022-09-02T21:21:56.568Z,50.70
2022-09-02T21:24:32.338Z,50.30
2022-09-02T21:27:06.261Z,50.60
2022-09-02T21:29:41.409Z,51.00
2022-09-02T21:32:14.896Z,51.90
2022-09-02T21:34:50.538Z,52.60
2022-09-02T21:37:21.238Z,52.00
2022-09-02T21:39:55.452Z,51.50
2022-09-02T21:42:32.521Z,52.00
2022-09-02T21:45:09.663Z,52.30
2022-09-02T21:47:44.380Z,52.30
2022-09-02T21:50:22.104Z,51.30
2022-09-02T21:53:01.772Z,51.90
2022-09-02T21:55:44.625Z,52.60
2022-09-02T21:58:34.252Z,53.20
2022-09-02T22:01:08.332Z,52.30
2022-09-02T22:03:42.422Z,52.50
2022-09-02T22:06:19.378Z,53.60
2022-09-02T22:08:56.153Z,53.40
2022-09-02T22:11:33.121Z,54.40
2022-09-02T22:14:09.027Z,52.40
2022-09-02T22:16:47.001Z,51.90
2022-09-02T22:19:16.677Z,51.60
2022-09-02T22:21:49.257Z,52.00
2022-09-02T22:24:19.000Z,52.10
2022-09-02T22:26:51.701Z,52.10
2022-09-02T22:29:24.979Z,52.70
2022-09-02T22:31:57.728Z,53.30
2022-09-02T22:34:28.154Z,53.80
2022-09-02T22:37:01.725Z,54.20
2022-09-02T22:39:35.657Z,54.10
2022-09-02T22:42:09.599Z,54.30
2022-09-02T22:45:08.975Z,54.60
2022-09-02T22:47:56.657Z,54.60
2022-09-02T22:50:50.739Z,54.80
2022-09-02T22:53:20.126Z,55.90
2022-09-02T22:55:59.511Z,54.90
2022-09-02T22:58:51.313Z,55.20
2022-09-02T23:01:25.808Z,54.90
2022-09-02T23:04:07.175Z,55.30
2022-09-02T23:06:35.071Z,55.90
2022-09-02T23:09:09.581Z,56.40
2022-09-02T23:11:49.357Z,56.00
2022-09-02T23:14:26.644Z,56.70
2022-09-02T23:17:20.574Z,57.40
2022-09-02T23:20:01.477Z,57.30
2022-09-02T23:22:40.960Z,57.80
2022-09-02T23:25:36.304Z,57.10
2022-09-02T23:28:15.135Z,56.90
2022-09-02T23:31:01.077Z,57.20
2022-09-02T23:33:46.027Z,57.70
2022-09-02T23:36:21.502Z,57.20
2022-09-02T23:39:10.099Z,57.20
2022-09-02T23:41:39.682Z,57.80
2022-09-02T23:44:08.627Z,58.50
2022-09-02T23:46:51.880Z,59.10
2022-09-02T23:49:31.229Z,58.90
2022-09-02T23:52:08.980Z,58.30
2022-09-02T23:54:52.176Z,59.70
2022-09-02T23:57:35.216Z,59.20
